createdAt,value
2018-06-05T00:00:06.128Z,25.93
2018-06-05T00:02:35.232Z,24.73
2018-06-05T00:05:04.364Z,25.23
2018-06-05T00:07:33.464Z,26.90
2018-06-05T00:10:02.534Z,27.30
2018-06-05T00:12:31.640Z,26.73
2018-06-05T00:15:00.721Z,26.77
2018-06-05T00:17:29.816Z,26.47
2018-06-05T00:19:58.888Z,26.73
2018-06-05T00:22:28.029Z,25.40
2018-06-05T00:24:57.096Z,25.17
2018-06-05T00:27:26.192Z,28.17
2018-06-05T00:29:55.268Z,28.53
2018-06-05T00:32:24.367Z,28.43
2018-06-05T00:34:53.444Z,29.13
2018-06-05T00:37:22.547Z,28.33
2018-06-05T00:39:51.671Z,29.33
2018-06-05T00:42:20.776Z,26.63
2018-06-05T00:44:49.848Z,28.10
2018-06-05T00:47:18.948Z,28.83
2018-06-05T00:49:48.032Z,29.43
2018-06-05T00:52:17.123Z,31.30
2018-06-05T00:54:46.205Z,30.70
2018-06-05T00:57:15.308Z,31.23
2018-06-05T00:59:44.379Z,31.03
2018-06-05T01:02:13.492Z,30.70
2018-06-05T01:04:42.612Z,32.50
2018-06-05T01:07:11.771Z,33.37
2018-06-05T01:09:40.843Z,32.00
2018-06-05T01:12:09.940Z,33.17
2018-06-05T01:14:39.015Z,32.77
2018-06-05T01:17:08.152Z,34.10
2018-06-05T01:19:37.241Z,32.57
2018-06-05T01:22:06.335Z,32.50
2018-06-05T01:24:35.412Z,33.67
2018-06-05T01:27:04.519Z,33.37
2018-06-05T01:29:33.596Z,33.67
2018-06-05T01:32:02.684Z,35.20
2018-06-05T01:34:31.765Z,35.77
2018-06-05T01:37:00.861Z,32.60
2018-06-05T01:39:29.959Z,32.80
2018-06-05T01:41:59.072Z,33.10
2018-06-05T01:44:28.152Z,32.70
2018-06-05T01:46:57.240Z,34.27
2018-06-05T01:49:30.500Z,35.37
2018-06-05T01:51:59.577Z,34.20
2018-06-05T01:54:28.684Z,33.27
2018-06-05T01:56:57.808Z,36.20
2018-06-05T01:59:26.909Z,34.83
2018-06-05T02:01:55.985Z,35.70
2018-06-05T02:04:25.096Z,33.30
2018-06-05T02:06:54.169Z,34.33
2018-06-05T02:09:23.272Z,31.43
2018-06-05T02:11:52.352Z,32.23
2018-06-05T02:14:21.448Z,32.23
2018-06-05T02:16:50.531Z,31.90
2018-06-05T02:19:19.632Z,27.93
2018-06-05T02:21:48.720Z,28.80
2018-06-05T02:24:17.842Z,25.23
2018-06-05T02:26:46.909Z,27.00
2018-06-05T02:29:16.015Z,25.30
2018-06-05T02:31:45.088Z,27.00
2018-06-05T02:34:14.204Z,24.90
2018-06-05T02:36:43.280Z,25.53
2018-06-05T02:39:12.405Z,23.80
2018-06-05T02:41:41.488Z,22.23
2018-06-05T02:44:10.589Z,24.13
2018-06-05T02:46:39.655Z,21.70
2018-06-05T02:49:08.761Z,23.27
2018-06-05T02:51:37.835Z,22.80
2018-06-05T02:54:06.996Z,20.13
2018-06-05T02:56:36.064Z,21.20
2018-06-05T02:59:05.405Z,23.47
2018-06-05T03:01:34.472Z,22.83
2018-06-05T03:04:03.572Z,23.90
2018-06-05T03:06:32.652Z,25.13
2018-06-05T03:09:01.743Z,23.47
2018-06-05T03:11:30.819Z,22.07
2018-06-05T03:13:59.921Z,20.30
2018-06-05T03:16:28.995Z,23.57
2018-06-05T03:18:58.085Z,24.73
2018-06-05T03:21:27.157Z,24.03
2018-06-05T03:23:56.252Z,23.47
2018-06-05T03:26:25.335Z,22.47
2018-06-05T03:28:54.428Z,25.40
2018-06-05T03:31:23.507Z,23.67
2018-06-05T03:33:52.605Z,24.97
2018-06-05T03:36:21.675Z,27.37
2018-06-05T03:38:50.792Z,25.53
2018-06-05T03:41:19.864Z,25.40
2018-06-05T03:43:48.962Z,27.63
2018-06-05T03:46:18.032Z,27.10
2018-06-05T03:48:47.128Z,26.17
2018-06-05T03:51:16.196Z,26.17
2018-06-05T03:53:45.291Z,24.83
2018-06-05T03:56:14.368Z,26.60
2018-06-05T03:58:43.476Z,28.93
2018-06-05T04:01:12.552Z,25.67
2018-06-05T04:03:41.659Z,26.63
2018-06-05T04:06:10.735Z,27.57
2018-06-05T04:08:39.808Z,25.57
2018-06-05T04:11:08.931Z,26.90
2018-06-05T04:13:38.004Z,25.40
2018-06-05T04:16:07.187Z,25.23
2018-06-05T04:18:36.302Z,26.10
2018-06-05T04:21:05.357Z,25.63
2018-06-05T04:23:34.427Z,26.00
2018-06-05T04:26:03.532Z,25.80
2018-06-05T04:28:32.604Z,25.87
2018-06-05T04:31:01.704Z,24.40
2018-06-05T04:33:30.776Z,23.17
2018-06-05T04:35:59.871Z,23.17
2018-06-05T04:38:28.971Z,23.30
2018-06-05T04:40:58.160Z,23.40
2018-06-05T04:43:27.699Z,23.45
2018-06-05T04:45:56.816Z,22.50
2018-06-05T04:48:26.020Z,24.25
2018-06-05T04:50:55.140Z,23.97
2018-06-05T04:53:24.228Z,22.77
2018-06-05T04:55:53.420Z,22.33
2018-06-05T04:58:22.511Z,23.80
2018-06-05T05:00:51.688Z,23.73
2018-06-05T05:03:20.798Z,22.77
2018-06-05T05:05:49.871Z,23.40
2018-06-05T05:08:18.977Z,22.70
2018-06-05T05:10:48.184Z,23.80
2018-06-05T05:13:17.268Z,21.90
2018-06-05T05:15:46.408Z,25.68
2018-06-05T05:18:15.504Z,24.27
2018-06-05T05:20:44.612Z,22.80
2018-06-05T05:23:13.733Z,23.60
2018-06-05T05:25:42.856Z,23.60
2018-06-05T05:28:11.955Z,23.62
2018-06-05T05:30:41.148Z,23.00
2018-06-05T05:33:10.240Z,22.10
2018-06-05T05:35:39.360Z,22.10
2018-06-05T05:38:08.449Z,24.13
2018-06-05T05:40:37.627Z,21.82
2018-06-05T05:43:06.824Z,22.47
2018-06-05T05:45:35.927Z,22.90
2018-06-05T05:48:05.148Z,23.85
2018-06-05T05:50:34.251Z,22.43
2018-06-05T05:53:03.332Z,22.55
2018-06-05T05:55:32.436Z,22.53
2018-06-05T05:58:01.569Z,20.30
2018-06-05T06:00:30.664Z,22.60
2018-06-05T06:02:59.812Z,22.67
2018-06-05T06:05:28.979Z,22.80
2018-06-05T06:07:58.168Z,20.80
2018-06-05T06:10:28.388Z,21.75
2018-06-05T06:12:57.481Z,22.47
2018-06-05T06:15:26.585Z,22.35
2018-06-05T06:17:55.677Z,23.80
2018-06-05T06:20:24.786Z,22.07
2018-06-05T06:22:53.868Z,22.63
2018-06-05T06:25:22.997Z,22.00
2018-06-05T06:27:52.080Z,23.67
2018-06-05T06:30:21.212Z,24.60
2018-06-05T06:32:50.296Z,24.70
2018-06-05T06:35:19.423Z,23.83
2018-06-05T06:37:48.476Z,25.00
2018-06-05T06:40:17.604Z,26.03
2018-06-05T06:42:46.696Z,23.23
2018-06-05T06:45:15.812Z,20.63
2018-06-05T06:47:44.898Z,23.43
2018-06-05T06:50:13.980Z,21.63
2018-06-05T06:52:43.083Z,21.60
2018-06-05T06:55:12.168Z,22.20
2018-06-05T06:57:41.291Z,22.70
2018-06-05T07:00:10.381Z,20.80
2018-06-05T07:02:39.487Z,21.23
2018-06-05T07:05:08.668Z,21.20
2018-06-05T07:07:37.772Z,22.47
2018-06-05T07:10:06.851Z,22.00
2018-06-05T07:12:35.967Z,22.70
2018-06-05T07:15:05.049Z,21.60
2018-06-05T07:17:34.158Z,23.73
2018-06-05T07:20:03.248Z,24.00
2018-06-05T07:22:32.404Z,22.30
2018-06-05T07:25:01.482Z,20.57
2018-06-05T07:27:30.590Z,22.33
2018-06-05T07:29:59.668Z,22.53
2018-06-05T07:32:28.768Z,22.33
2018-06-05T07:34:57.851Z,21.20
2018-06-05T07:37:26.953Z,21.67
2018-06-05T07:39:56.055Z,21.53
2018-06-05T07:42:25.153Z,20.10
2018-06-05T07:44:54.224Z,21.33
2018-06-05T07:47:23.325Z,20.80
2018-06-05T07:49:52.407Z,21.97
2018-06-05T07:52:21.507Z,21.33
2018-06-05T07:54:50.576Z,21.43
2018-06-05T07:57:20.264Z,19.97
2018-06-05T07:59:50.320Z,20.77
2018-06-05T08:02:20.343Z,21.00
2018-06-05T08:04:50.344Z,19.45
2018-06-05T08:07:20.372Z,19.32
2018-06-05T08:09:50.372Z,20.17
2018-06-05T08:12:20.404Z,19.87
2018-06-05T08:14:50.401Z,21.20
2018-06-05T08:17:20.452Z,22.17
2018-06-05T08:19:50.441Z,20.60
2018-06-05T08:22:20.466Z,20.20
2018-06-05T08:24:50.465Z,19.98
2018-06-05T08:27:20.608Z,19.92
2018-06-05T08:29:50.496Z,19.85
2018-06-05T08:32:19.600Z,21.13
2018-06-05T08:34:48.685Z,24.40
2018-06-05T08:37:17.775Z,22.97
2018-06-05T08:39:46.880Z,24.50
2018-06-05T08:42:15.990Z,28.17
2018-06-05T08:44:45.072Z,28.73
2018-06-05T08:47:14.176Z,25.77
2018-06-05T08:49:43.259Z,28.52
2018-06-05T08:52:12.356Z,26.27
2018-06-05T08:54:42.468Z,26.14
2018-06-05T08:57:11.576Z,27.07
2018-06-05T08:59:40.664Z,25.93
2018-06-05T09:02:09.776Z,26.23
2018-06-05T09:04:38.855Z,28.10
2018-06-05T09:07:07.977Z,28.23
2018-06-05T09:09:37.056Z,25.68
2018-06-05T09:12:06.160Z,24.57
2018-06-05T09:14:35.243Z,27.02
2018-06-05T09:17:04.352Z,27.70
2018-06-05T09:19:33.604Z,26.62
2018-06-05T09:22:02.716Z,26.83
2018-06-05T09:24:31.800Z,27.73
2018-06-05T09:27:00.908Z,28.33
2018-06-05T09:29:30.041Z,24.63
2018-06-05T09:31:59.161Z,27.52
2018-06-05T09:34:28.259Z,26.67
2018-06-05T09:36:57.356Z,25.57
2018-06-05T09:39:26.464Z,24.43
2018-06-05T09:41:55.584Z,26.20
2018-06-05T09:44:24.685Z,26.90
2018-06-05T09:46:53.878Z,25.70
2018-06-05T09:49:22.971Z,24.03
2018-06-05T09:51:52.151Z,25.55
2018-06-05T09:54:21.439Z,24.27
2018-06-05T09:56:50.590Z,25.20
2018-06-05T09:59:19.760Z,21.12
2018-06-05T10:01:48.816Z,22.87
2018-06-05T10:04:17.920Z,23.50
2018-06-05T10:06:47.749Z,23.13
2018-06-05T10:09:18.172Z,22.20
2018-06-05T10:11:47.254Z,23.13
2018-06-05T10:14:16.370Z,22.03
2018-06-05T10:16:45.523Z,22.13
2018-06-05T10:19:14.672Z,22.30
2018-06-05T10:21:43.760Z,20.90
2018-06-05T10:24:13.011Z,20.95
2018-06-05T10:26:42.138Z,18.93
2018-06-05T10:29:11.389Z,19.95
2018-06-05T10:31:40.460Z,18.50
2018-06-05T10:34:10.284Z,18.33
2018-06-05T10:36:39.392Z,18.30
2018-06-05T10:39:08.616Z,17.12
2018-06-05T10:41:37.700Z,17.77
2018-06-05T10:44:06.807Z,19.00
2018-06-05T10:46:35.906Z,17.85
2018-06-05T10:49:05.028Z,17.10
2018-06-05T10:51:34.113Z,17.02
2018-06-05T10:54:03.215Z,16.57
2018-06-05T10:56:32.294Z,17.75
2018-06-05T10:59:02.173Z,16.62
2018-06-05T11:01:31.187Z,16.97
2018-06-05T11:04:00.290Z,17.93
2018-06-05T11:06:29.364Z,15.40
2018-06-05T11:08:58.468Z,15.67
2018-06-05T11:11:27.552Z,17.50
2018-06-05T11:13:56.645Z,15.15
2018-06-05T11:16:25.719Z,16.40
2018-06-05T11:18:54.828Z,17.02
2018-06-05T11:21:23.921Z,16.27
2018-06-05T11:23:53.016Z,15.53
2018-06-05T11:26:22.091Z,15.30
2018-06-05T11:28:51.204Z,16.30
2018-06-05T11:31:20.287Z,16.87
2018-06-05T11:33:49.387Z,17.60
2018-06-05T11:36:18.476Z,16.52
2018-06-05T11:38:47.604Z,15.30
2018-06-05T11:41:16.696Z,15.27
2018-06-05T11:43:45.800Z,16.57
2018-06-05T11:46:14.917Z,16.57
2018-06-05T11:48:44.036Z,16.48
2018-06-05T11:51:13.140Z,15.27
2018-06-05T11:53:42.303Z,14.33
2018-06-05T11:56:11.400Z,16.30
2018-06-05T11:58:40.522Z,16.25
2018-06-05T12:01:09.616Z,18.27
2018-06-05T12:03:38.728Z,17.17
2018-06-05T12:06:07.828Z,16.17
2018-06-05T12:08:36.942Z,15.60
2018-06-05T12:11:06.028Z,16.23
2018-06-05T12:13:35.148Z,16.27
2018-06-05T12:16:04.355Z,17.57
2018-06-05T12:18:33.469Z,17.17
2018-06-05T12:21:02.576Z,15.35
2018-06-05T12:23:31.696Z,16.37
2018-06-05T12:26:00.785Z,16.70
2018-06-05T12:28:29.919Z,17.23
2018-06-05T12:30:59.090Z,18.67
2018-06-05T12:33:28.139Z,16.60
2018-06-05T12:35:57.280Z,16.90
2018-06-05T12:38:26.491Z,15.83
2018-06-05T12:40:55.708Z,17.27
2018-06-05T12:43:24.792Z,16.90
2018-06-05T12:45:53.903Z,18.83
2018-06-05T12:48:22.992Z,17.27
2018-06-05T12:50:52.107Z,18.35
2018-06-05T12:53:21.175Z,17.43
2018-06-05T12:55:50.296Z,16.40
2018-06-05T12:58:19.701Z,15.87
2018-06-05T13:00:48.809Z,16.30
2018-06-05T13:03:17.899Z,17.30
2018-06-05T13:05:47.001Z,17.53
2018-06-05T13:08:16.088Z,15.17
2018-06-05T13:10:45.193Z,14.30
2018-06-05T13:13:14.324Z,15.10
2018-06-05T13:15:43.440Z,14.03
2018-06-05T13:18:12.512Z,16.73
2018-06-05T13:20:41.617Z,17.03
2018-06-05T13:23:10.908Z,15.27
2018-06-05T13:25:39.980Z,14.83
2018-06-05T13:28:09.061Z,13.50
2018-06-05T13:30:38.172Z,14.53
2018-06-05T13:33:07.264Z,15.70
2018-06-05T13:35:36.365Z,14.53
2018-06-05T13:38:05.456Z,14.20
2018-06-05T13:40:34.589Z,16.62
2018-06-05T13:43:03.680Z,15.38
2018-06-05T13:45:32.781Z,15.77
2018-06-05T13:48:01.868Z,16.10
2018-06-05T13:50:30.976Z,17.50
2018-06-05T13:53:00.056Z,17.50
2018-06-05T13:55:29.164Z,16.73
2018-06-05T13:57:58.248Z,17.65
2018-06-05T14:00:27.353Z,15.35
2018-06-05T14:02:56.424Z,16.00
2018-06-05T14:05:25.524Z,16.07
2018-06-05T14:07:54.637Z,14.30
2018-06-05T14:10:23.716Z,14.93
2018-06-05T14:12:52.829Z,14.73
2018-06-05T14:15:21.920Z,15.93
2018-06-05T14:17:51.039Z,16.40
2018-06-05T14:20:20.123Z,15.93
2018-06-05T14:22:49.232Z,16.85
2018-06-05T14:25:18.328Z,15.88
2018-06-05T14:27:47.436Z,17.35
2018-06-05T14:30:16.522Z,17.50
2018-06-05T14:32:45.616Z,18.40
2018-06-05T14:35:14.697Z,17.60
2018-06-05T14:37:43.815Z,16.80
2018-06-05T14:40:12.913Z,18.03
2018-06-05T14:42:42.019Z,18.70
2018-06-05T14:45:11.204Z,16.70
2018-06-05T14:47:40.212Z,19.80
2018-06-05T14:50:09.308Z,18.23
2018-06-05T14:52:38.425Z,18.57
2018-06-05T14:55:07.508Z,17.70
2018-06-05T14:57:36.620Z,18.23
2018-06-05T15:00:06.450Z,16.67
2018-06-05T15:02:35.547Z,16.33
2018-06-05T15:05:04.639Z,15.13
2018-06-05T15:07:33.744Z,14.77
2018-06-05T15:10:02.833Z,17.50
2018-06-05T15:12:31.960Z,17.50
2018-06-05T15:15:01.046Z,17.70
2018-06-05T15:17:30.196Z,17.65
2018-06-05T15:19:59.275Z,17.90
2018-06-05T15:22:28.381Z,19.13
2018-06-05T15:24:57.749Z,17.80
2018-06-05T15:27:26.832Z,17.63
2018-06-05T15:29:55.932Z,19.27
2018-06-05T15:32:25.373Z,20.27
2018-06-05T15:34:54.661Z,18.40
2018-06-05T15:37:23.856Z,18.00
2018-06-05T15:39:53.607Z,18.00
2018-06-05T15:42:22.785Z,17.33
2018-06-05T15:44:51.884Z,17.48
2018-06-05T15:47:21.020Z,18.12
2018-06-05T15:49:50.872Z,16.48
2018-06-05T15:52:20.153Z,17.07
2018-06-05T15:54:49.299Z,15.03
2018-06-05T15:57:18.794Z,16.63
2018-06-05T15:59:47.892Z,16.20
2018-06-05T16:02:16.981Z,16.83
2018-06-05T16:04:46.194Z,17.00
2018-06-05T16:07:15.173Z,17.90
2018-06-05T16:09:44.279Z,18.07
2018-06-05T16:12:14.061Z,18.50
2018-06-05T16:14:43.196Z,18.07
2018-06-05T16:17:12.284Z,17.57
2018-06-05T16:19:41.392Z,16.63
2018-06-05T16:22:10.472Z,15.70
2018-06-05T16:24:39.596Z,15.57
2018-06-05T16:27:08.684Z,16.67
2018-06-05T16:29:37.781Z,16.55
2018-06-05T16:32:07.056Z,15.77
2018-06-05T16:34:37.176Z,16.70
2018-06-05T16:37:06.288Z,17.07
2018-06-05T16:39:35.543Z,16.43
2018-06-05T16:42:04.693Z,15.43
2018-06-05T16:44:33.772Z,17.87
2018-06-05T16:47:02.904Z,17.17
2018-06-05T16:49:31.996Z,17.83
2018-06-05T16:52:01.112Z,17.25
2018-06-05T16:54:30.220Z,17.90
2018-06-05T16:56:59.345Z,14.93
2018-06-05T16:59:28.432Z,15.37
2018-06-05T17:01:57.556Z,15.57
2018-06-05T17:04:26.759Z,14.47
2018-06-05T17:06:56.432Z,15.10
2018-06-05T17:09:25.528Z,15.03
2018-06-05T17:11:54.656Z,15.30
2018-06-05T17:14:23.756Z,15.43
2018-06-05T17:16:52.871Z,17.97
2018-06-05T17:19:21.995Z,16.20
2018-06-05T17:21:51.097Z,16.83
2018-06-05T17:24:20.183Z,14.65
2018-06-05T17:26:49.276Z,14.50
2018-06-05T17:29:18.397Z,14.93
2018-06-05T17:31:47.480Z,15.00
2018-06-05T17:34:16.604Z,15.87
2018-06-05T17:36:45.724Z,16.25
2018-06-05T17:39:14.863Z,14.57
2018-06-05T17:41:43.958Z,16.37
2018-06-05T17:44:13.070Z,15.55
2018-06-05T17:46:42.513Z,15.60
2018-06-05T17:49:11.636Z,15.43
2018-06-05T17:51:40.733Z,13.83
2018-06-05T17:54:09.844Z,14.30
2018-06-05T17:56:38.963Z,15.43
2018-06-05T17:59:08.080Z,15.60
2018-06-05T18:01:37.168Z,14.27
2018-06-05T18:04:06.291Z,13.70
2018-06-05T18:06:35.380Z,14.23
2018-06-05T18:09:06.774Z,13.70
2018-06-05T18:11:36.051Z,13.83
2018-06-05T18:14:05.447Z,13.83
2018-06-05T18:16:35.286Z,13.77
2018-06-05T18:19:05.505Z,14.27
2018-06-05T18:21:34.900Z,13.58
2018-06-05T18:24:04.741Z,12.63
2018-06-05T18:26:34.060Z,13.13
2018-06-05T18:29:03.848Z,12.03
2018-06-05T18:31:33.571Z,12.10
2018-06-05T18:34:02.891Z,13.43
2018-06-05T18:36:33.301Z,13.27
2018-06-05T18:39:03.702Z,13.57
2018-06-05T18:41:33.476Z,12.63
2018-06-05T18:44:02.892Z,14.15
2018-06-05T18:46:32.118Z,13.20
2018-06-05T18:49:01.220Z,14.60
2018-06-05T18:51:30.337Z,13.65
2018-06-05T18:53:59.412Z,12.70
2018-06-05T18:56:28.582Z,13.40
2018-06-05T18:58:57.663Z,12.13
2018-06-05T19:01:27.691Z,13.00
2018-06-05T19:03:56.846Z,14.53
2018-06-05T19:06:25.917Z,14.85
2018-06-05T19:08:55.112Z,13.20
2018-06-05T19:11:24.212Z,13.47
2018-06-05T19:13:53.301Z,13.60
2018-06-05T19:16:22.402Z,13.40
2018-06-05T19:18:52.332Z,13.67
2018-06-05T19:21:21.440Z,14.47
2018-06-05T19:23:50.528Z,13.93
2018-06-05T19:26:19.633Z,14.40
2018-06-05T19:28:48.717Z,14.67
2018-06-05T19:31:17.828Z,15.00
2018-06-05T19:33:46.903Z,14.83
2018-06-05T19:36:16.005Z,13.90
2018-06-05T19:38:45.131Z,15.00
2018-06-05T19:41:14.283Z,14.07
2018-06-05T19:43:43.325Z,13.53
2018-06-05T19:46:12.408Z,15.70
2018-06-05T19:48:41.526Z,16.05
2018-06-05T19:51:10.592Z,15.63
2018-06-05T19:53:39.680Z,16.63
2018-06-05T19:56:08.969Z,15.08
2018-06-05T19:58:38.055Z,15.18
2018-06-05T20:01:07.198Z,16.03
2018-06-05T20:03:36.244Z,16.02
2018-06-05T20:06:05.532Z,16.27
2018-06-05T20:08:34.640Z,15.70
2018-06-05T20:11:03.713Z,16.17
2018-06-05T20:13:32.803Z,16.50
2018-06-05T20:16:01.885Z,15.47
2018-06-05T20:18:30.980Z,16.40
2018-06-05T20:21:00.048Z,15.50
2018-06-05T20:23:29.149Z,15.93
2018-06-05T20:25:58.232Z,14.27
2018-06-05T20:28:27.331Z,14.40
2018-06-05T20:30:56.401Z,14.57
2018-06-05T20:33:25.505Z,15.93
2018-06-05T20:35:54.581Z,15.10
2018-06-05T20:38:23.671Z,17.50
2018-06-05T20:40:52.732Z,16.07
2018-06-05T20:43:21.828Z,16.77
2018-06-05T20:45:50.908Z,16.67
2018-06-05T20:48:20.017Z,16.77
2018-06-05T20:50:49.868Z,16.20
2018-06-05T20:53:18.972Z,15.80
2018-06-05T20:55:48.048Z,16.37
2018-06-05T20:58:17.156Z,16.80
2018-06-05T21:00:46.234Z,16.20
2018-06-05T21:03:15.412Z,16.63
2018-06-05T21:05:44.492Z,16.63
2018-06-05T21:08:13.602Z,16.67
2018-06-05T21:10:42.685Z,17.07
2018-06-05T21:13:11.751Z,17.00
2018-06-05T21:15:40.848Z,15.70
2018-06-05T21:18:09.924Z,14.33
2018-06-05T21:20:39.024Z,15.77
2018-06-05T21:23:08.104Z,16.70
2018-06-05T21:25:37.205Z,15.53
2018-06-05T21:28:06.352Z,15.40
2018-06-05T21:30:35.449Z,15.17
2018-06-05T21:33:04.752Z,15.50
2018-06-05T21:35:33.852Z,15.33
2018-06-05T21:38:02.940Z,12.63
2018-06-05T21:40:32.056Z,13.70
2018-06-05T21:43:01.124Z,15.60
2018-06-05T21:45:30.215Z,15.30
2018-06-05T21:47:59.284Z,15.50
2018-06-05T21:50:28.380Z,15.77
2018-06-05T21:52:57.452Z,15.67
2018-06-05T21:55:26.548Z,16.60
2018-06-05T21:57:55.619Z,16.20
2018-06-05T22:00:24.718Z,18.33
2018-06-05T22:02:53.789Z,16.53
2018-06-05T22:05:22.883Z,17.17
2018-06-05T22:07:51.960Z,17.63
2018-06-05T22:10:21.064Z,17.20
2018-06-05T22:12:50.136Z,18.83
2018-06-05T22:15:19.383Z,17.90
2018-06-05T22:17:48.459Z,16.30
2018-06-05T22:20:17.532Z,15.67
2018-06-05T22:22:46.636Z,17.57
2018-06-05T22:25:15.720Z,18.23
2018-06-05T22:27:44.825Z,18.17
2018-06-05T22:30:13.899Z,18.80
2018-06-05T22:32:42.989Z,18.30
2018-06-05T22:35:12.074Z,17.40
2018-06-05T22:37:41.185Z,19.73
2018-06-05T22:40:10.280Z,18.53
2018-06-05T22:42:39.384Z,18.43
2018-06-05T22:45:08.456Z,19.73
2018-06-05T22:47:37.556Z,17.23
2018-06-05T22:50:06.712Z,18.33
2018-06-05T22:52:35.810Z,18.10
2018-06-05T22:55:04.888Z,19.80
2018-06-05T22:57:33.984Z,18.40
2018-06-05T23:00:03.068Z,19.23
2018-06-05T23:02:31.888Z,18.17
2018-06-05T23:05:00.965Z,18.00
2018-06-05T23:07:30.057Z,17.60
2018-06-05T23:09:59.132Z,18.60
2018-06-05T23:12:28.232Z,18.10
2018-06-05T23:14:57.304Z,18.27
2018-06-05T23:17:26.396Z,17.70
2018-06-05T23:19:55.471Z,17.13
2018-06-05T23:22:24.574Z,15.63
2018-06-05T23:24:53.744Z,13.83
2018-06-05T23:27:22.844Z,11.77
2018-06-05T23:29:51.924Z,13.80
2018-06-05T23:32:21.004Z,15.90
2018-06-05T23:34:50.103Z,17.10
2018-06-05T23:37:19.184Z,19.60
2018-06-05T23:39:48.295Z,20.57
2018-06-05T23:42:17.372Z,19.30
2018-06-05T23:44:46.488Z,20.80
2018-06-05T23:47:15.556Z,21.77
2018-06-05T23:49:44.647Z,21.13
2018-06-05T23:52:13.723Z,20.63
2018-06-05T23:54:42.821Z,21.50
2018-06-05T23:57:11.899Z,20.87
2018-06-05T23:59:41.004Z,20.50
